createdAt,value
2023-02-12T00:02:30.738Z,0.54
2023-02-12T00:05:35.496Z,0.58
2023-02-12T00:08:35.578Z,0.62
2023-02-12T00:11:41.508Z,0.65
2023-02-12T00:14:41.548Z,0.69
2023-02-12T00:17:42.560Z,0.70
2023-02-12T00:20:43.550Z,0.72
2023-02-12T00:23:43.548Z,0.74
2023-02-12T00:26:44.837Z,0.77
2023-02-12T00:29:44.524Z,0.78
2023-02-12T00:32:44.571Z,0.76
2023-02-12T00:35:44.643Z,0.76
2023-02-12T00:38:44.659Z,0.79
2023-02-12T00:41:45.701Z,0.84
2023-02-12T00:44:45.562Z,0.86
2023-02-12T00:47:45.602Z,0.85
2023-02-12T00:50:46.583Z,0.84
2023-02-12T00:53:47.621Z,0.86
2023-02-12T00:56:48.619Z,0.89
2023-02-12T01:00:08.661Z,0.92
2023-02-12T01:03:08.572Z,0.95
2023-02-12T01:06:09.600Z,0.97
2023-02-12T01:09:15.619Z,1.00
2023-02-12T01:12:15.646Z,1.03
2023-02-12T01:15:19.661Z,1.06
2023-02-12T01:18:27.676Z,1.08
2023-02-12T01:21:30.701Z,1.11
2023-02-12T01:24:30.663Z,1.13
2023-02-12T01:27:30.633Z,1.13
2023-02-12T01:30:30.670Z,1.11
2023-02-12T01:33:30.742Z,1.06
2023-02-12T01:36:30.688Z,1.04
2023-02-12T01:39:32.774Z,1.00
2023-02-12T01:42:32.677Z,0.97
2023-02-12T01:45:35.671Z,0.98
2023-02-12T01:48:36.691Z,0.95
2023-02-12T01:51:39.169Z,0.93
2023-02-12T01:54:40.691Z,0.92
2023-02-12T01:57:41.765Z,0.93
2023-02-12T02:00:42.724Z,0.95
2023-02-12T02:03:43.746Z,1.00
2023-02-12T02:06:55.772Z,1.01
2023-02-12T02:09:55.756Z,0.93
2023-02-12T02:13:13.928Z,0.80
2023-02-12T02:16:39.941Z,0.63
2023-02-12T02:19:59.744Z,0.54
2023-02-12T02:23:05.729Z,0.49
2023-02-12T02:26:35.818Z,0.46
2023-02-12T02:30:02.794Z,0.39
2023-02-12T02:33:12.778Z,0.27
2023-02-12T02:36:54.445Z,0.15
2023-02-12T02:40:17.790Z,0.05
2023-02-12T02:43:22.803Z,-0.03
2023-02-12T02:46:44.875Z,-0.10
2023-02-12T02:49:59.843Z,-0.20
2023-02-12T02:53:19.282Z,-0.29
2023-02-12T02:56:22.854Z,-0.37
2023-02-12T02:59:37.832Z,-0.43
2023-02-12T03:02:42.848Z,-0.46
2023-02-12T03:05:46.011Z,-0.47
2023-02-12T03:08:47.794Z,-0.48
2023-02-12T03:11:47.845Z,-0.49
2023-02-12T03:14:56.091Z,-0.47
2023-02-12T03:17:59.828Z,-0.44
2023-02-12T03:21:03.804Z,-0.41
2023-02-12T03:24:08.886Z,-0.41
2023-02-12T03:27:33.861Z,-0.42
2023-02-12T03:30:33.942Z,-0.49
2023-02-12T03:33:42.880Z,-0.58
2023-02-12T03:36:49.085Z,-0.67
2023-02-12T03:39:57.197Z,-0.75
2023-02-12T03:42:57.905Z,-0.79
2023-02-12T03:46:11.170Z,-0.81
2023-02-12T03:50:02.924Z,-0.85
2023-02-12T03:53:05.907Z,-0.93
2023-02-12T03:56:08.933Z,-1.01
2023-02-12T03:59:08.926Z,-1.08
2023-02-12T04:02:10.019Z,-1.17
2023-02-12T04:05:10.906Z,-1.24
2023-02-12T04:08:12.929Z,-1.30
2023-02-12T04:11:15.965Z,-1.34
2023-02-12T04:14:41.986Z,-1.38
2023-02-12T04:18:02.980Z,-1.42
2023-02-12T04:21:32.020Z,-1.45
2023-02-12T04:24:32.016Z,-1.46
2023-02-12T04:28:12.007Z,-1.47
2023-02-12T04:31:19.001Z,-1.47
2023-02-12T04:34:41.994Z,-1.52
2023-02-12T04:37:43.987Z,-1.59
2023-02-12T04:40:45.495Z,-1.64
2023-02-12T04:43:46.994Z,-1.71
2023-02-12T04:46:47.943Z,-1.77
2023-02-12T04:49:47.979Z,-1.84
2023-02-12T04:52:48.227Z,-1.91
2023-02-12T04:55:49.045Z,-1.97
2023-02-12T04:58:54.028Z,-2.02
2023-02-12T05:01:56.043Z,-2.06
2023-02-12T05:04:56.250Z,-2.11
2023-02-12T05:07:57.013Z,-2.13
2023-02-12T05:10:58.005Z,-2.16
2023-02-12T05:14:04.143Z,-2.18
2023-02-12T05:17:05.196Z,-2.21
2023-02-12T05:20:09.018Z,-2.20
2023-02-12T05:23:11.072Z,-2.18
2023-02-12T05:26:12.043Z,-2.11
2023-02-12T05:29:13.091Z,-2.04
2023-02-12T05:32:13.281Z,-1.98
2023-02-12T05:35:13.037Z,-1.91
2023-02-12T05:38:13.107Z,-1.84
2023-02-12T05:41:18.081Z,-1.77
2023-02-12T05:44:19.056Z,-1.71
2023-02-12T05:47:20.115Z,-1.66
2023-02-12T05:50:21.051Z,-1.61
2023-02-12T05:53:27.080Z,-1.57
2023-02-12T05:56:41.112Z,-1.56
2023-02-12T05:59:41.195Z,-1.58
2023-02-12T06:02:44.148Z,-1.58
2023-02-12T06:05:46.794Z,-1.56
2023-02-12T06:08:48.192Z,-1.54
2023-02-12T06:11:52.143Z,-1.54
2023-02-12T06:14:54.322Z,-1.57
2023-02-12T06:17:55.100Z,-1.60
2023-02-12T06:20:55.185Z,-1.64
2023-02-12T06:23:56.207Z,-1.68
2023-02-12T06:27:02.156Z,-1.72
2023-02-12T06:30:02.414Z,-1.70
2023-02-12T06:33:06.342Z,-1.65
2023-02-12T06:36:09.302Z,-0.86
2023-02-12T06:39:09.188Z,0.65
2023-02-12T06:42:09.164Z,1.88
2023-02-12T06:45:09.164Z,2.86
2023-02-12T06:48:10.243Z,3.89
2023-02-12T06:51:10.255Z,4.20
2023-02-12T06:54:11.320Z,3.79
2023-02-12T06:57:11.190Z,3.37
2023-02-12T07:00:13.505Z,2.80
2023-02-12T07:03:18.210Z,2.50
2023-02-12T07:06:26.217Z,2.50
2023-02-12T07:09:31.571Z,2.58
2023-02-12T07:12:43.277Z,2.89
2023-02-12T07:15:43.255Z,3.63
2023-02-12T07:18:49.263Z,3.77
2023-02-12T07:21:49.517Z,3.75
2023-02-12T07:24:53.534Z,3.55
2023-02-12T07:27:56.921Z,2.92
2023-02-12T07:31:01.703Z,2.33
2023-02-12T07:34:10.516Z,1.93
2023-02-12T07:37:10.281Z,1.90
2023-02-12T07:40:14.342Z,2.00
2023-02-12T07:43:14.520Z,2.07
2023-02-12T07:46:29.286Z,1.93
2023-02-12T07:49:34.269Z,1.82
2023-02-12T07:52:38.581Z,1.80
2023-02-12T07:55:38.256Z,1.76
2023-02-12T07:58:41.226Z,1.74
2023-02-12T08:01:51.295Z,2.30
2023-02-12T08:04:51.307Z,3.48
2023-02-12T08:07:53.279Z,4.70
2023-02-12T08:10:54.408Z,5.79
2023-02-12T08:13:57.474Z,6.43
2023-02-12T08:16:58.342Z,6.91
2023-02-12T08:20:01.350Z,7.22
2023-02-12T08:23:02.378Z,7.53
2023-02-12T08:26:06.321Z,8.26
2023-02-12T08:29:15.386Z,8.78
2023-02-12T08:32:21.586Z,9.12
2023-02-12T08:35:21.454Z,9.27
2023-02-12T08:38:22.635Z,9.50
2023-02-12T08:41:25.487Z,9.51
2023-02-12T08:44:25.561Z,9.72
2023-02-12T08:47:30.423Z,10.02
2023-02-12T08:50:31.464Z,10.10
2023-02-12T08:53:32.448Z,10.30
2023-02-12T08:56:36.437Z,10.19
2023-02-12T08:59:36.429Z,10.22
2023-02-12T09:02:36.516Z,10.01
2023-02-12T09:05:38.581Z,10.08
2023-02-12T09:08:42.793Z,10.35
2023-02-12T09:11:44.514Z,10.61
2023-02-12T09:14:45.489Z,10.66
2023-02-12T09:17:49.423Z,10.75
2023-02-12T09:20:53.460Z,10.77
2023-02-12T09:23:58.542Z,10.66
2023-02-12T09:26:59.537Z,10.83
2023-02-12T09:30:00.731Z,11.04
2023-02-12T09:33:02.596Z,11.25
2023-02-12T09:36:04.483Z,11.36
2023-02-12T09:39:05.595Z,10.98
2023-02-12T09:42:29.462Z,10.54
2023-02-12T09:45:39.519Z,10.64
2023-02-12T09:48:49.766Z,10.34
2023-02-12T09:51:51.504Z,10.05
2023-02-12T09:54:52.565Z,10.17
2023-02-12T09:57:54.959Z,10.58
2023-02-12T10:00:57.580Z,10.87
2023-02-12T10:03:59.563Z,10.90
2023-02-12T10:07:04.668Z,10.56
2023-02-12T10:10:26.604Z,10.51
2023-02-12T10:13:43.521Z,10.96
2023-02-12T10:16:59.552Z,11.17
2023-02-12T10:20:18.559Z,11.31
2023-02-12T10:23:44.666Z,11.49
2023-02-12T10:26:55.757Z,11.19
2023-02-12T10:29:58.617Z,11.14
2023-02-12T10:33:03.706Z,11.33
2023-02-12T10:36:04.572Z,11.44
2023-02-12T10:39:12.654Z,11.44
2023-02-12T10:42:31.658Z,11.43
2023-02-12T10:45:36.595Z,11.28
2023-02-12T10:48:51.651Z,11.25
2023-02-12T10:52:15.634Z,10.92
2023-02-12T10:55:16.647Z,10.75
2023-02-12T10:58:17.751Z,10.85
2023-02-12T11:01:17.778Z,11.22
2023-02-12T11:04:36.793Z,11.30
2023-02-12T11:07:40.936Z,11.17
2023-02-12T11:10:52.667Z,11.22
2023-02-12T11:13:59.666Z,11.15
2023-02-12T11:17:08.728Z,11.16
2023-02-12T11:20:22.123Z,11.17
2023-02-12T11:23:38.655Z,11.14
2023-02-12T11:26:42.670Z,11.26
2023-02-12T11:29:43.794Z,11.18
2023-02-12T11:32:45.960Z,10.84
2023-02-12T11:35:45.687Z,10.93
2023-02-12T11:38:47.726Z,11.01
2023-02-12T11:41:52.678Z,11.11
2023-02-12T11:44:54.867Z,11.10
2023-02-12T11:47:55.753Z,11.12
2023-02-12T11:51:02.720Z,11.21
2023-02-12T11:54:04.748Z,11.01
2023-02-12T11:57:05.781Z,11.17
2023-02-12T12:00:06.851Z,11.22
2023-02-12T12:03:26.971Z,11.25
2023-02-12T12:06:49.991Z,11.22
2023-02-12T12:09:57.821Z,11.07
2023-02-12T12:13:04.544Z,11.12
2023-02-12T12:17:06.106Z,11.25
2023-02-12T12:20:12.975Z,11.34
2023-02-12T12:23:18.761Z,11.56
2023-02-12T12:26:34.950Z,11.38
2023-02-12T12:29:39.986Z,11.09
2023-02-12T12:32:39.924Z,10.91
2023-02-12T12:35:50.858Z,10.83
2023-02-12T12:39:02.874Z,10.79
2023-02-12T12:42:35.801Z,10.77
2023-02-12T12:46:18.077Z,10.86
2023-02-12T12:49:42.161Z,10.79
2023-02-12T12:52:56.932Z,10.67
2023-02-12T12:55:59.940Z,10.70
2023-02-12T13:03:15.840Z,10.27
2023-02-12T13:06:22.045Z,10.02
2023-02-12T13:09:37.853Z,9.88
2023-02-12T13:12:38.975Z,9.93
2023-02-12T13:15:50.947Z,9.82
2023-02-12T13:19:03.442Z,9.61
2023-02-12T13:22:13.921Z,9.60
2023-02-12T13:25:35.882Z,9.59
2023-02-12T13:28:43.921Z,9.25
2023-02-12T13:31:46.088Z,9.01
2023-02-12T13:34:46.900Z,8.83
2023-02-12T13:37:55.171Z,8.66
2023-02-12T13:40:56.639Z,8.44
2023-02-12T13:44:17.799Z,8.44
2023-02-12T13:47:41.928Z,8.33
2023-02-12T13:51:00.790Z,7.98
2023-02-12T13:54:07.914Z,7.73
2023-02-12T13:57:10.957Z,7.51
2023-02-12T14:00:16.418Z,7.29
2023-02-12T14:03:22.325Z,7.13
2023-02-12T14:06:31.099Z,6.80
2023-02-12T14:09:36.178Z,6.32
2023-02-12T14:12:37.212Z,6.00
2023-02-12T14:15:45.152Z,5.84
2023-02-12T14:18:49.233Z,5.52
2023-02-12T14:21:50.990Z,5.15
2023-02-12T14:24:52.015Z,4.87
2023-02-12T14:28:03.161Z,4.62
2023-02-12T14:31:31.132Z,4.39
2023-02-12T14:34:35.308Z,4.03
2023-02-12T14:37:47.045Z,3.82
2023-02-12T14:40:51.483Z,3.47
2023-02-12T14:44:09.594Z,3.19
2023-02-12T14:47:11.042Z,3.04
2023-02-12T14:50:19.199Z,2.94
2023-02-12T14:53:41.132Z,2.74
2023-02-12T14:56:41.343Z,2.50
2023-02-12T14:59:45.074Z,2.24
2023-02-12T15:02:48.031Z,1.95
2023-02-12T15:05:51.328Z,1.70
2023-02-12T15:09:02.038Z,1.46
2023-02-12T15:12:12.065Z,1.22
2023-02-12T15:15:26.934Z,1.03
2023-02-12T15:18:40.123Z,0.85
2023-02-12T15:21:48.194Z,0.68
2023-02-12T15:24:53.581Z,0.52
2023-02-12T15:28:01.233Z,0.39
2023-02-12T15:31:02.605Z,0.26
2023-02-12T15:34:05.175Z,0.15
2023-02-12T15:37:07.133Z,0.06
2023-02-12T15:40:17.131Z,-0.04
2023-02-12T15:43:19.174Z,-0.11
2023-02-12T15:46:22.521Z,-0.20
2023-02-12T15:49:32.424Z,-0.25
2023-02-12T15:52:41.536Z,-0.32
2023-02-12T15:55:48.216Z,-0.39
2023-02-12T15:58:59.212Z,-0.44
2023-02-12T16:02:14.139Z,-0.49
2023-02-12T16:05:16.243Z,-0.55
2023-02-12T16:08:24.159Z,-0.59
2023-02-12T16:11:28.164Z,-0.63
2023-02-12T16:14:52.249Z,-0.66
2023-02-12T16:18:04.859Z,-0.69
2023-02-12T16:21:24.438Z,-0.73
2023-02-12T16:24:47.176Z,-0.77
2023-02-12T16:27:50.448Z,-0.80
2023-02-12T16:30:55.692Z,-0.84
2023-02-12T16:34:06.726Z,-0.89
2023-02-12T16:37:08.182Z,-0.94
2023-02-12T16:40:10.329Z,-1.00
2023-02-12T16:43:36.602Z,-1.05
2023-02-12T16:46:41.145Z,-1.12
2023-02-12T16:49:43.191Z,-1.20
2023-02-12T16:52:51.240Z,-1.25
2023-02-12T16:55:59.407Z,-1.31
2023-02-12T16:59:06.472Z,-1.36
2023-02-12T17:02:26.221Z,-1.40
2023-02-12T17:05:29.404Z,-1.42
2023-02-12T17:08:31.458Z,-1.45
2023-02-12T17:11:35.228Z,-1.47
2023-02-12T17:14:38.303Z,-1.50
2023-02-12T17:17:39.390Z,-1.52
2023-02-12T17:20:43.618Z,-1.53
2023-02-12T17:23:44.654Z,-1.56
2023-02-12T17:26:46.609Z,-1.58
2023-02-12T17:29:48.360Z,-1.59
2023-02-12T17:32:51.546Z,-1.58
2023-02-12T17:35:53.492Z,-1.58
2023-02-12T17:38:54.279Z,-1.58
2023-02-12T17:41:58.708Z,-1.59
2023-02-12T17:44:59.314Z,-1.59
2023-02-12T17:48:00.341Z,-1.60
2023-02-12T17:51:07.385Z,-1.61
2023-02-12T17:54:12.374Z,-1.62
2023-02-12T17:57:13.031Z,-1.64
2023-02-12T18:00:16.434Z,-1.66
2023-02-12T18:03:18.384Z,-1.68
2023-02-12T18:06:22.692Z,-1.70
2023-02-12T18:09:24.698Z,-1.72
2023-02-12T18:12:24.433Z,-1.73
2023-02-12T18:15:27.335Z,-1.76
2023-02-12T18:18:28.529Z,-1.79
2023-02-12T18:21:29.537Z,-1.82
2023-02-12T18:24:30.463Z,-1.85
2023-02-12T18:27:30.448Z,-1.88
2023-02-12T18:30:31.558Z,-1.90
2023-02-12T18:33:33.329Z,-1.92
2023-02-12T18:36:36.401Z,-1.95
2023-02-12T18:39:37.805Z,-1.97
2023-02-12T18:42:39.364Z,-2.00
2023-02-12T18:45:40.505Z,-2.01
2023-02-12T18:48:42.428Z,-2.03
2023-02-12T18:51:47.371Z,-2.05
2023-02-12T18:54:50.497Z,-2.06
2023-02-12T18:57:50.415Z,-2.10
2023-02-12T19:00:51.409Z,-2.12
2023-02-12T19:03:54.399Z,-2.14
2023-02-12T19:06:54.993Z,-2.17
2023-02-12T19:10:32.477Z,-2.20
2023-02-12T19:13:33.424Z,-2.22
2023-02-12T19:16:33.599Z,-2.22
2023-02-12T19:19:38.825Z,-2.20
2023-02-12T19:22:39.507Z,-2.17
2023-02-12T19:25:50.663Z,-2.11
2023-02-12T19:28:54.512Z,-2.08
2023-02-12T19:31:56.990Z,-2.04
2023-02-12T19:35:04.529Z,-1.99
2023-02-12T19:38:07.472Z,-1.93
2023-02-12T19:41:15.485Z,-1.86
2023-02-12T19:44:23.763Z,-1.80
2023-02-12T19:47:23.485Z,-1.75
2023-02-12T19:50:35.351Z,-1.71
2023-02-12T19:53:36.526Z,-1.68
2023-02-12T19:56:36.496Z,-1.65
2023-02-12T19:59:36.538Z,-1.63
2023-02-12T20:02:37.563Z,-1.62
2023-02-12T20:05:43.530Z,-1.62
2023-02-12T20:08:43.561Z,-1.63
2023-02-12T20:11:47.828Z,-1.64
2023-02-12T20:14:50.608Z,-1.64
2023-02-12T20:17:51.545Z,-1.66
2023-02-12T20:20:54.620Z,-1.69
2023-02-12T20:24:01.973Z,-1.72
2023-02-12T20:27:03.836Z,-1.77
2023-02-12T20:30:04.616Z,-1.81
2023-02-12T20:33:07.571Z,-1.85
2023-02-12T20:36:08.799Z,-1.90
2023-02-12T20:39:09.614Z,-1.96
2023-02-12T20:42:14.569Z,-2.01
2023-02-12T20:45:20.824Z,-2.05
2023-02-12T20:48:21.597Z,-2.09
2023-02-12T20:51:23.591Z,-2.11
2023-02-12T20:54:24.574Z,-2.14
2023-02-12T20:57:31.628Z,-2.18
2023-02-12T21:00:33.760Z,-2.20
2023-02-12T21:03:36.581Z,-2.20
2023-02-12T21:06:36.814Z,-2.19
2023-02-12T21:09:29.779Z,-2.18
2023-02-12T21:12:31.866Z,-2.18
2023-02-12T21:15:32.686Z,-2.20
2023-02-12T21:18:35.761Z,-2.25
2023-02-12T21:21:41.621Z,-2.30
2023-02-12T21:24:42.674Z,-2.35
2023-02-12T21:27:46.588Z,-2.41
2023-02-12T21:30:48.638Z,-2.45
2023-02-12T21:33:55.697Z,-2.47
2023-02-12T21:36:56.823Z,-2.46
2023-02-12T21:39:57.632Z,-2.41
2023-02-12T21:42:59.691Z,-2.37
2023-02-12T21:46:04.822Z,-2.32
2023-02-12T21:49:07.766Z,-2.30
2023-02-12T21:52:16.134Z,-2.28
2023-02-12T21:55:19.658Z,-2.25
2023-02-12T21:58:19.682Z,-2.21
2023-02-12T22:01:25.821Z,-2.17
2023-02-12T22:04:27.724Z,-2.13
2023-02-12T22:07:28.942Z,-2.11
2023-02-12T22:10:32.071Z,-2.09
2023-02-12T22:13:33.677Z,-2.06
2023-02-12T22:16:38.929Z,-2.03
2023-02-12T22:19:39.716Z,-2.03
2023-02-12T22:22:40.722Z,-2.05
2023-02-12T22:25:40.703Z,-2.09
2023-02-12T22:28:42.751Z,-2.12
2023-02-12T22:31:44.879Z,-2.17
2023-02-12T22:34:46.829Z,-2.24
2023-02-12T22:37:47.753Z,-2.27
2023-02-12T22:40:49.749Z,-2.30
2023-02-12T22:43:52.739Z,-2.31
2023-02-12T22:46:54.795Z,-2.31
2023-02-12T22:49:56.768Z,-2.30
2023-02-12T22:52:56.742Z,-2.30
2023-02-12T22:55:57.775Z,-2.30
2023-02-12T22:58:58.756Z,-2.32
2023-02-12T23:01:59.892Z,-2.34
2023-02-12T23:04:59.771Z,-2.35
2023-02-12T23:07:59.785Z,-2.37
2023-02-12T23:11:01.829Z,-2.40
2023-02-12T23:14:02.776Z,-2.44
2023-02-12T23:17:03.846Z,-2.48
2023-02-12T23:20:03.780Z,-2.54
2023-02-12T23:23:06.836Z,-2.59
2023-02-12T23:26:10.812Z,-2.64
2023-02-12T23:29:10.840Z,-2.68
2023-02-12T23:32:12.939Z,-2.73
2023-02-12T23:35:12.933Z,-2.78
2023-02-12T23:38:13.954Z,-2.82
2023-02-12T23:41:13.989Z,-2.86
2023-02-12T23:44:14.847Z,-2.90
2023-02-12T23:47:15.891Z,-2.96
2023-02-12T23:50:18.945Z,-2.99
2023-02-12T23:53:20.059Z,-3.03
2023-02-12T23:56:20.932Z,-3.06
2023-02-12T23:59:22.927Z,-3.11
